Time,TemperatureF,DewpointF,PressureIn,WindDirection,WindDirectionDegrees,WindSpeedMPH,WindSpeedGustMPH,Humidity,HourlyPrecipIn,Conditions,Clouds,dailyrainin,SoftwareType,DateUTC
2013-05-11 00:03:00,49.7,47.2,30.14,ESE,111,0.0,0.0,91,0.00,,,0.00,VWS V14.01,2013-05-11 07:03:00,
2013-05-11 00:08:00,49.6,47.1,30.14,ESE,112,0.0,0.0,91,0.00,,,0.00,VWS V14.01,2013-05-11 07:08:00,
2013-05-11 00:13:00,49.6,47.1,30.14,ESE,112,0.0,0.0,91,0.00,,,0.00,VWS V14.01,2013-05-11 07:13:00,
2013-05-11 00:18:00,49.5,47.3,30.14,ESE,112,0.0,1.9,92,0.00,,,0.00,VWS V14.01,2013-05-11 07:18:00,
2013-05-11 00:23:00,49.5,47.3,30.14,SSW,201,0.0,1.9,92,0.00,,,0.00,VWS V14.01,2013-05-11 07:23:00,
2013-05-11 00:28:00,49.6,47.4,30.14,WSW,245,0.0,3.8,92,0.00,,,0.00,VWS V14.01,2013-05-11 07:28:00,
2013-05-11 00:33:00,49.6,47.4,30.14,WSW,246,0.0,0.0,92,0.00,,,0.00,VWS V14.01,2013-05-11 07:33:00,
2013-05-11 00:38:00,49.5,47.3,30.14,WSW,245,0.0,0.0,92,0.00,,,0.00,VWS V14.01,2013-05-11 07:38:00,
2013-05-11 00:43:00,49.3,47.1,30.14,WSW,246,0.0,0.0,92,0.00,,,0.00,VWS V14.01,2013-05-11 07:43:00,
2013-05-11 00:48:00,49.2,47.0,30.14,WSW,246,0.0,0.0,92,0.00,,,0.00,VWS V14.01,2013-05-11 07:48:00,
2013-05-11 00:54:00,49.1,46.9,30.14,SW,224,0.0,1.9,92,0.00,,,0.00,VWS V14.01,2013-05-11 07:54:00,
2013-05-11 00:59:00,49.1,46.9,30.14,SW,224,0.0,1.9,92,0.00,,,0.00,VWS V14.01,2013-05-11 07:59:00,
2013-05-11 01:04:00,49.2,47.3,30.14,West,269,0.0,3.8,93,0.00,,,0.00,VWS V14.01,2013-05-11 08:04:00,
2013-05-11 01:09:00,49.3,47.4,30.13,West,269,0.0,3.8,93,0.00,,,0.00,VWS V14.01,2013-05-11 08:09:00,
2013-05-11 01:14:00,49.2,47.0,30.13,West,269,0.0,3.8,92,0.00,,,0.00,VWS V14.01,2013-05-11 08:14:00,
2013-05-11 01:19:00,49.1,46.9,30.13,West,269,0.0,3.8,92,0.00,,,0.00,VWS V14.01,2013-05-11 08:19:00,
2013-05-11 01:24:00,48.8,46.6,30.13,West,269,0.0,3.8,92,0.00,,,0.00,VWS V14.01,2013-05-11 08:24:00,
2013-05-11 01:29:00,48.5,46.3,30.13,West,269,0.0,3.8,92,0.00,,,0.00,VWS V14.01,2013-05-11 08:29:00,
2013-05-11 01:34:00,48.5,46.6,30.13,West,269,0.0,0.0,93,0.00,,,0.00,VWS V14.01,2013-05-11 08:34:00,
2013-05-11 01:39:00,48.4,46.5,30.13,West,269,0.0,0.0,93,0.00,,,0.00,VWS V14.01,2013-05-11 08:39:00,
2013-05-11 01:44:00,48.2,46.3,30.12,West,269,0.0,0.0,93,0.00,,,0.00,VWS V14.01,2013-05-11 08:44:00,
2013-05-11 01:49:00,48.1,46.2,30.12,West,269,0.0,0.0,93,0.00,,,0.00,VWS V14.01,2013-05-11 08:49:00,
2013-05-11 01:54:00,48.1,46.2,30.12,West,269,0.0,1.9,93,0.00,,,0.00,VWS V14.01,2013-05-11 08:54:00,
2013-05-11 01:59:00,48.0,46.1,30.12,West,269,0.0,1.9,93,0.00,,,0.00,VWS V14.01,2013-05-11 08:59:00,
2013-05-11 02:04:00,48.1,46.2,30.13,West,269,0.0,0.0,93,0.00,,,0.00,VWS V14.01,2013-05-11 09:04:00,
2013-05-11 02:09:00,47.9,46.0,30.13,West,269,0.0,0.0,93,0.00,,,0.00,VWS V14.01,2013-05-11 09:09:00,
2013-05-11 02:14:00,47.7,45.8,30.12,West,264,0.0,1.9,93,0.00,,,0.00,VWS V14.01,2013-05-11 09:14:00,
2013-05-11 02:19:00,47.9,46.3,30.12,West,264,0.0,1.9,94,0.00,,,0.00,VWS V14.01,2013-05-11 09:19:00,
2013-05-11 02:25:00,47.9,46.3,30.12,West,264,0.0,0.0,94,0.00,,,0.00,VWS V14.01,2013-05-11 09:25:00,
2013-05-11 02:30:00,48.1,46.5,30.12,West,264,0.0,0.0,94,0.00,,,0.00,VWS V14.01,2013-05-11 09:30:00,
2013-05-11 02:35:00,48.2,46.6,30.11,WSW,257,1.9,1.9,94,0.00,,,0.00,VWS V14.01,2013-05-11 09:35:00,
2013-05-11 02:40:00,48.1,46.5,30.11,SW,221,0.0,1.9,94,0.00,,,0.00,VWS V14.01,2013-05-11 09:40:00,
2013-05-11 02:45:00,48.2,46.6,30.11,SW,221,0.0,1.9,94,0.00,,,0.00,VWS V14.01,2013-05-11 09:45:00,
2013-05-11 02:50:00,48.2,46.6,30.11,SW,221,0.0,1.9,94,0.00,,,0.00,VWS V14.01,2013-05-11 09:50:00,
2013-05-11 02:55:00,48.2,46.6,30.11,SW,222,0.0,1.9,94,0.00,,,0.00,VWS V14.01,2013-05-11 09:55:00,
2013-05-11 03:00:00,48.2,46.6,30.11,SW,222,0.0,0.0,94,0.00,,,0.00,VWS V14.01,2013-05-11 10:00:00,
2013-05-11 03:05:00,48.3,46.7,30.11,WSW,257,0.0,1.9,94,0.00,,,0.00,VWS V14.01,2013-05-11 10:05:00,
2013-05-11 03:10:00,48.4,46.8,30.11,West,277,0.0,3.8,94,0.00,,,0.00,VWS V14.01,2013-05-11 10:10:00,
2013-05-11 03:15:00,48.6,47.0,30.11,West,277,0.0,3.8,94,0.00,,,0.00,VWS V14.01,2013-05-11 10:15:00,
2013-05-11 03:20:00,48.8,47.2,30.11,WNW,302,0.0,3.8,94,0.00,,,0.00,VWS V14.01,2013-05-11 10:20:00,
2013-05-11 03:25:00,48.8,47.2,30.11,West,274,0.0,3.8,94,0.00,,,0.00,VWS V14.01,2013-05-11 10:25:00,
2013-05-11 03:30:00,48.9,47.2,30.11,SSW,210,0.0,1.9,94,0.00,,,0.00,VWS V14.01,2013-05-11 10:30:00,
2013-05-11 03:36:00,48.9,47.2,30.11,SSW,211,0.0,1.9,94,0.00,,,0.00,VWS V14.01,2013-05-11 10:36:00,
2013-05-11 03:41:00,49.0,47.3,30.11,SSW,204,0.0,1.9,94,0.00,,,0.00,VWS V14.01,2013-05-11 10:41:00,
2013-05-11 03:46:00,49.0,47.3,30.11,SSW,205,0.0,1.9,94,0.00,,,0.00,VWS V14.01,2013-05-11 10:46:00,
2013-05-11 03:51:00,49.1,47.5,30.11,SSW,205,0.0,1.9,94,0.00,,,0.00,VWS V14.01,2013-05-11 10:51:00,
2013-05-11 03:56:00,49.1,47.5,30.11,SSW,205,0.0,1.9,94,0.00,,,0.00,VWS V14.01,2013-05-11 10:56:00,
2013-05-11 04:01:00,49.1,47.5,30.10,SSW,204,0.0,0.0,94,0.00,,,0.00,VWS V14.01,2013-05-11 11:01:00,
2013-05-11 04:06:00,49.0,47.3,30.10,SE,132,0.0,1.9,94,0.00,,,0.00,VWS V14.01,2013-05-11 11:06:00,
2013-05-11 04:11:00,48.9,47.2,30.10,SE,132,0.0,1.9,94,0.00,,,0.00,VWS V14.01,2013-05-11 11:11:00,
2013-05-11 04:16:00,48.9,47.2,30.10,South,174,0.0,1.9,94,0.00,,,0.00,VWS V14.01,2013-05-11 11:16:00,
2013-05-11 04:21:00,48.8,47.2,30.10,South,173,0.0,1.9,94,0.00,,,0.00,VWS V14.01,2013-05-11 11:21:00,
2013-05-11 04:26:00,48.8,47.2,30.10,South,174,0.0,1.9,94,0.00,,,0.00,VWS V14.01,2013-05-11 11:26:00,
2013-05-11 04:31:00,48.8,47.2,30.10,SSE,159,0.0,0.0,94,0.00,,,0.00,VWS V14.01,2013-05-11 11:31:00,
2013-05-11 04:36:00,48.7,47.0,30.10,SSE,159,0.0,0.0,94,0.00,,,0.00,VWS V14.01,2013-05-11 11:36:00,
2013-05-11 04:41:00,48.7,47.0,30.10,SSE,159,0.0,0.0,94,0.00,,,0.00,VWS V14.01,2013-05-11 11:41:00,
2013-05-11 04:46:00,48.7,47.0,30.09,SSE,161,0.0,0.0,94,0.00,,,0.00,VWS V14.01,2013-05-11 11:46:00,
2013-05-11 04:51:00,48.5,46.9,30.10,SSE,159,0.0,0.0,94,0.00,,,0.00,VWS V14.01,2013-05-11 11:51:00,
2013-05-11 04:56:00,48.5,46.9,30.10,SSE,159,0.0,0.0,94,0.00,,,0.00,VWS V14.01,2013-05-11 11:56:00,
2013-05-11 05:01:00,48.5,46.9,30.10,SSE,159,0.0,0.0,94,0.00,,,0.00,VWS V14.01,2013-05-11 12:01:00,
2013-05-11 05:06:00,48.6,47.0,30.10,SSE,160,0.0,0.0,94,0.00,,,0.00,VWS V14.01,2013-05-11 12:06:00,
2013-05-11 05:11:00,48.6,47.0,30.10,SSE,159,0.0,0.0,94,0.00,,,0.00,VWS V14.01,2013-05-11 12:11:00,
2013-05-11 05:16:00,48.6,47.0,30.10,SSE,159,0.0,0.0,94,0.00,,,0.00,VWS V14.01,2013-05-11 12:16:00,
2013-05-11 05:21:00,48.6,47.0,30.10,SSE,159,0.0,0.0,94,0.00,,,0.00,VWS V14.01,2013-05-11 12:21:00,
2013-05-11 05:26:00,48.5,46.9,30.10,SSE,159,0.0,0.0,94,0.00,,,0.00,VWS V14.01,2013-05-11 12:26:00,
2013-05-11 05:31:00,48.5,46.9,30.10,East,86,3.8,3.8,94,0.00,,,0.00,VWS V14.01,2013-05-11 12:31:00,
2013-05-11 05:36:00,48.5,46.9,30.09,East,82,0.0,3.8,94,0.00,,,0.00,VWS V14.01,2013-05-11 12:36:00,
2013-05-11 05:41:00,48.6,47.0,30.09,East,87,0.0,3.8,94,0.00,,,0.00,VWS V14.01,2013-05-11 12:41:00,
2013-05-11 05:46:00,48.6,47.0,30.09,East,86,1.9,3.8,94,0.00,,,0.00,VWS V14.01,2013-05-11 12:46:00,
2013-05-11 05:51:00,48.7,47.0,30.09,ESE,103,0.0,3.8,94,0.00,,,0.00,VWS V14.01,2013-05-11 12:51:00,
2013-05-11 05:56:00,48.7,47.0,30.09,East,91,3.8,3.8,94,0.00,,,0.00,VWS V14.01,2013-05-11 12:56:00,
2013-05-11 06:01:00,48.7,47.0,30.09,SE,125,0.0,1.9,94,0.00,,,0.00,VWS V14.01,2013-05-11 13:01:00,
2013-05-11 06:06:00,48.8,47.2,30.09,ESE,117,5.7,5.7,94,0.00,,,0.00,VWS V14.01,2013-05-11 13:06:00,
2013-05-11 06:11:00,48.6,47.0,30.09,ESE,108,0.0,5.7,94,0.00,,,0.00,VWS V14.01,2013-05-11 13:11:00,
2013-05-11 06:16:00,48.4,46.8,30.09,ESE,115,0.0,5.7,94,0.00,,,0.00,VWS V14.01,2013-05-11 13:16:00,
2013-05-11 06:21:00,48.2,46.6,30.10,ESE,115,0.0,5.7,94,0.00,,,0.00,VWS V14.01,2013-05-11 13:21:00,
2013-05-11 06:26:00,48.2,46.6,30.10,SE,131,0.0,5.7,94,0.00,,,0.00,VWS V14.01,2013-05-11 13:26:00,
2013-05-11 06:31:00,48.2,46.6,30.10,SE,131,0.0,0.0,94,0.00,,,0.00,VWS V14.01,2013-05-11 13:31:00,
2013-05-11 06:36:00,48.2,46.6,30.10,SE,131,0.0,0.0,94,0.00,,,0.00,VWS V14.01,2013-05-11 13:36:00,
2013-05-11 06:42:00,48.2,46.6,30.10,South,176,0.0,1.9,94,0.00,,,0.00,VWS V14.01,2013-05-11 13:42:00,
2013-05-11 06:47:00,48.2,46.6,30.10,SSE,167,0.0,1.9,94,0.00,,,0.00,VWS V14.01,2013-05-11 13:47:00,
2013-05-11 06:52:00,48.3,46.7,30.10,South,184,0.0,1.9,94,0.00,,,0.00,VWS V14.01,2013-05-11 13:52:00,
2013-05-11 06:57:00,48.5,47.1,30.10,South,185,0.0,1.9,95,0.00,,,0.00,VWS V14.01,2013-05-11 13:57:00,
2013-05-11 07:02:00,48.7,47.3,30.10,South,184,0.0,0.0,95,0.00,,,0.00,VWS V14.01,2013-05-11 14:02:00,
2013-05-11 07:07:00,48.9,47.5,30.10,South,185,0.0,0.0,95,0.00,,,0.00,VWS V14.01,2013-05-11 14:07:00,
2013-05-11 07:12:00,49.2,47.8,30.10,South,184,0.0,0.0,95,0.00,,,0.00,VWS V14.01,2013-05-11 14:12:00,
2013-05-11 07:17:00,49.3,47.9,30.11,South,184,0.0,1.9,95,0.00,,,0.00,VWS V14.01,2013-05-11 14:17:00,
2013-05-11 07:22:00,49.5,48.1,30.11,South,191,0.0,1.9,95,0.00,,,0.00,VWS V14.01,2013-05-11 14:22:00,
2013-05-11 07:27:00,49.6,48.0,30.11,SSW,197,0.0,1.9,94,0.00,,,0.00,VWS V14.01,2013-05-11 14:27:00,
2013-05-11 07:32:00,49.8,48.2,30.11,West,271,1.9,3.8,94,0.00,,,0.00,VWS V14.01,2013-05-11 14:32:00,
2013-05-11 07:37:00,49.8,48.2,30.11,West,273,0.0,3.8,94,0.00,,,0.00,VWS V14.01,2013-05-11 14:37:00,
2013-05-11 07:42:00,50.0,48.3,30.11,West,266,0.0,3.8,94,0.00,,,0.00,VWS V14.01,2013-05-11 14:42:00,
2013-05-11 07:47:00,50.2,48.5,30.11,SSW,200,0.0,3.8,94,0.00,,,0.00,VWS V14.01,2013-05-11 14:47:00,
2013-05-11 07:52:00,50.4,48.7,30.11,SSW,201,0.0,3.8,94,0.00,,,0.00,VWS V14.01,2013-05-11 14:52:00,
2013-05-11 07:57:00,50.6,48.9,30.11,SSW,201,0.0,3.8,94,0.00,,,0.00,VWS V14.01,2013-05-11 14:57:00,
2013-05-11 08:02:00,50.9,49.0,30.12,West,269,0.0,1.9,93,0.00,,,0.00,VWS V14.01,2013-05-11 15:02:00,
2013-05-11 08:07:00,51.2,49.2,30.12,West,269,0.0,1.9,93,0.00,,,0.00,VWS V14.01,2013-05-11 15:07:00,
2013-05-11 08:12:00,51.7,49.8,30.12,West,269,0.0,1.9,93,0.00,,,0.00,VWS V14.01,2013-05-11 15:12:00,
2013-05-11 08:17:00,52.1,49.6,30.12,WNW,298,1.9,3.8,91,0.00,,,0.00,VWS V14.01,2013-05-11 15:17:00,
2013-05-11 08:22:00,52.1,49.3,30.12,WNW,287,0.0,3.8,90,0.00,,,0.00,VWS V14.01,2013-05-11 15:22:00,
2013-05-11 08:27:00,52.7,49.8,30.11,West,267,1.9,3.8,90,0.00,,,0.00,VWS V14.01,2013-05-11 15:27:00,
2013-05-11 08:32:00,53.3,50.2,30.11,East,79,0.0,3.8,89,0.00,,,0.00,VWS V14.01,2013-05-11 15:32:00,
2013-05-11 08:38:00,54.7,50.9,30.11,SSW,207,0.0,3.8,87,0.00,,,0.00,VWS V14.01,2013-05-11 15:38:00,
2013-05-11 08:43:00,55.9,51.1,30.11,NW,304,1.9,3.8,84,0.00,,,0.00,VWS V14.01,2013-05-11 15:43:00,
2013-05-11 08:48:00,56.7,51.6,30.11,West,276,0.0,3.8,83,0.00,,,0.00,VWS V14.01,2013-05-11 15:48:00,
2013-05-11 08:53:00,57.1,51.0,30.11,North,360,0.0,3.8,80,0.00,,,0.00,VWS V14.01,2013-05-11 15:53:00,
2013-05-11 08:58:00,57.8,51.7,30.12,West,276,5.7,5.7,80,0.00,,,0.00,VWS V14.01,2013-05-11 15:58:00,
2013-05-11 09:04:00,58.0,51.5,30.12,WNW,287,1.9,7.6,79,0.00,,,0.00,VWS V14.01,2013-05-11 16:04:00,
2013-05-11 09:09:00,58.4,51.6,30.12,NNW,342,1.9,7.6,78,0.00,,,0.00,VWS V14.01,2013-05-11 16:09:00,
2013-05-11 09:14:00,59.1,52.3,30.12,SW,217,0.0,7.6,78,0.00,,,0.00,VWS V14.01,2013-05-11 16:14:00,
2013-05-11 09:19:00,60.4,52.5,30.12,SSE,165,0.0,7.6,75,0.00,,,0.00,VWS V14.01,2013-05-11 16:19:00,
2013-05-11 09:24:00,61.3,52.6,30.11,West,280,1.9,7.6,73,0.00,,,0.00,VWS V14.01,2013-05-11 16:24:00,
2013-05-11 09:29:00,62.2,53.1,30.11,SSW,194,1.9,7.6,72,0.00,,,0.00,VWS V14.01,2013-05-11 16:29:00,
2013-05-11 09:34:00,62.8,52.9,30.11,SW,219,0.0,3.8,70,0.00,,,0.00,VWS V14.01,2013-05-11 16:34:00,
2013-05-11 09:39:00,63.5,53.2,30.11,WSW,257,0.0,3.8,69,0.00,,,0.00,VWS V14.01,2013-05-11 16:39:00,
2013-05-11 09:44:00,64.5,52.9,30.11,ENE,61,0.0,3.8,66,0.00,,BKN150,0.00,VWS V14.01,2013-05-11 16:44:00,
2013-05-11 09:49:00,65.3,53.2,30.11,South,184,0.0,3.8,65,0.00,,BKN150,0.00,VWS V14.01,2013-05-11 16:49:00,
2013-05-11 09:54:00,66.1,54.0,30.11,WNW,288,0.0,3.8,65,0.00,,BKN150,0.00,VWS V14.01,2013-05-11 16:54:00,
2013-05-11 09:59:00,66.9,54.8,30.10,WNW,287,1.9,3.8,65,0.00,,BKN150,0.00,VWS V14.01,2013-05-11 16:59:00,
2013-05-11 10:04:00,67.3,53.8,30.10,SW,229,0.0,3.8,62,0.00,,,0.00,VWS V14.01,2013-05-11 17:04:00,
2013-05-11 10:09:00,67.6,54.1,30.10,West,273,1.9,3.8,62,0.00,,,0.00,VWS V14.01,2013-05-11 17:09:00,
2013-05-11 10:14:00,67.8,54.3,30.10,West,276,0.0,3.8,62,0.00,,,0.00,VWS V14.01,2013-05-11 17:14:00,
2013-05-11 10:19:00,68.4,54.0,30.10,ENE,60,1.9,3.8,60,0.00,,,0.00,VWS V14.01,2013-05-11 17:19:00,
2013-05-11 10:24:00,69.2,54.7,30.10,WNW,284,1.9,3.8,60,0.00,,,0.00,VWS V14.01,2013-05-11 17:24:00,
2013-05-11 10:29:00,69.6,54.2,30.10,West,280,1.9,3.8,58,0.00,,,0.00,VWS V14.01,2013-05-11 17:29:00,
2013-05-11 10:34:00,69.4,54.0,30.09,SSW,194,0.0,5.7,58,0.00,,,0.00,VWS V14.01,2013-05-11 17:34:00,
2013-05-11 10:39:00,70.1,55.1,30.09,WSW,253,1.9,5.7,59,0.00,,,0.00,VWS V14.01,2013-05-11 17:39:00,
2013-05-11 10:44:00,71.1,55.1,30.09,SSE,165,0.0,5.7,57,0.00,,,0.00,VWS V14.01,2013-05-11 17:44:00,
2013-05-11 10:49:00,72.0,56.4,30.09,SW,222,0.0,5.7,58,0.00,,,0.00,VWS V14.01,2013-05-11 17:49:00,
2013-05-11 10:54:00,72.8,54.7,30.09,South,174,1.9,5.7,53,0.00,,,0.00,VWS V14.01,2013-05-11 17:54:00,
2013-05-11 10:59:00,72.9,55.8,30.09,West,279,5.7,7.6,55,0.00,,,0.00,VWS V14.01,2013-05-11 17:59:00,
2013-05-11 11:04:00,72.8,56.7,30.10,WNW,285,1.9,3.8,57,0.00,,,0.00,VWS V14.01,2013-05-11 18:04:00,
2013-05-11 11:09:00,73.6,55.4,30.09,West,271,1.9,5.7,53,0.00,,,0.00,VWS V14.01,2013-05-11 18:09:00,
2013-05-11 11:14:00,74.2,56.5,30.10,WNW,285,0.0,3.8,54,0.00,,,0.00,VWS V14.01,2013-05-11 18:14:00,
2013-05-11 11:19:00,74.3,56.6,30.10,West,262,1.9,5.7,54,0.00,,,0.00,VWS V14.01,2013-05-11 18:19:00,
2013-05-11 11:24:00,74.3,57.1,30.09,WNW,294,3.8,7.6,55,0.00,,,0.00,VWS V14.01,2013-05-11 18:24:00,
2013-05-11 11:29:00,74.2,57.0,30.09,West,280,0.0,7.6,55,0.00,,,0.00,VWS V14.01,2013-05-11 18:29:00,
2013-05-11 11:34:00,74.2,57.0,30.10,West,279,0.0,7.6,55,0.00,,,0.00,VWS V14.01,2013-05-11 18:34:00,
2013-05-11 11:39:00,74.9,56.1,30.09,West,274,3.8,7.6,52,0.00,,,0.00,VWS V14.01,2013-05-11 18:39:00,
2013-05-11 11:44:00,74.7,55.9,30.09,West,280,3.8,9.5,52,0.00,,,0.00,VWS V14.01,2013-05-11 18:44:00,
2013-05-11 11:49:00,74.8,56.5,30.09,West,269,1.9,1.9,53,0.00,,,0.00,VWS V14.01,2013-05-11 18:49:00,
2013-05-11 11:54:00,75.8,57.5,30.09,SSE,160,3.8,5.7,53,0.00,,,0.00,VWS V14.01,2013-05-11 18:54:00,
2013-05-11 12:00:00,76.7,57.2,30.09,South,177,0.0,0.0,51,0.00,,,0.00,VWS V14.01,2013-05-11 19:00:00,
2013-05-11 12:05:00,77.8,57.1,30.09,SSW,200,0.0,3.8,49,0.00,,,0.00,VWS V14.01,2013-05-11 19:05:00,
2013-05-11 12:10:00,78.5,57.8,30.09,West,274,1.9,1.9,49,0.00,,,0.00,VWS V14.01,2013-05-11 19:10:00,
2013-05-11 12:15:00,79.2,57.8,30.08,SSW,194,0.0,5.7,48,0.00,,,0.00,VWS V14.01,2013-05-11 19:15:00,
2013-05-11 12:20:00,80.4,58.3,30.08,SW,218,1.9,1.9,47,0.00,,,0.00,VWS V14.01,2013-05-11 19:20:00,
2013-05-11 12:25:00,80.8,58.1,30.08,ESE,108,1.9,7.6,46,0.00,,,0.00,VWS V14.01,2013-05-11 19:25:00,
2013-05-11 12:30:00,81.0,58.3,30.08,West,259,0.0,3.8,46,0.00,,,0.00,VWS V14.01,2013-05-11 19:30:00,
2013-05-11 12:35:00,81.2,56.6,30.08,ESE,114,0.0,3.8,43,0.00,,,0.00,VWS V14.01,2013-05-11 19:35:00,
2013-05-11 12:40:00,81.6,56.3,30.08,South,191,0.0,1.9,42,0.00,,,0.00,VWS V14.01,2013-05-11 19:40:00,
2013-05-11 12:45:00,82.1,58.7,30.08,WSW,252,0.0,3.8,45,0.00,,,0.00,VWS V14.01,2013-05-11 19:45:00,
2013-05-11 12:50:00,82.7,58.0,30.08,West,276,1.9,3.8,43,0.00,,,0.00,VWS V14.01,2013-05-11 19:50:00,
2013-05-11 12:55:00,82.8,58.7,30.07,SSW,198,0.0,3.8,44,0.00,,,0.00,VWS V14.01,2013-05-11 19:55:00,
2013-05-11 13:00:00,82.5,57.8,30.07,SW,214,5.7,5.7,43,0.00,,,0.00,VWS V14.01,2013-05-11 20:00:00,
2013-05-11 13:05:00,82.3,58.9,30.07,West,264,0.0,7.6,45,0.00,,CLR,0.00,VWS V14.01,2013-05-11 20:05:00,
2013-05-11 13:10:00,82.9,58.8,30.07,SW,215,0.0,0.0,44,0.00,,CLR,0.00,VWS V14.01,2013-05-11 20:10:00,
2013-05-11 13:15:00,83.6,58.8,30.07,WSW,255,0.0,7.6,43,0.00,,CLR,0.00,VWS V14.01,2013-05-11 20:15:00,
2013-05-11 13:20:00,83.3,58.5,30.07,WSW,240,0.0,1.9,43,0.00,,CLR,0.00,VWS V14.01,2013-05-11 20:20:00,
2013-05-11 13:25:00,83.1,58.3,30.07,West,280,0.0,7.6,43,0.00,,CLR,0.00,VWS V14.01,2013-05-11 20:25:00,
2013-05-11 13:30:00,83.5,59.9,30.06,West,259,1.9,5.7,45,0.00,,CLR,0.00,VWS V14.01,2013-05-11 20:30:00,
2013-05-11 13:35:00,83.7,61.3,30.06,South,179,3.8,5.7,47,0.00,,CLR,0.00,VWS V14.01,2013-05-11 20:35:00,
2013-05-11 13:40:00,83.8,60.2,30.06,WSW,245,1.9,1.9,45,0.00,,CLR,0.00,VWS V14.01,2013-05-11 20:40:00,
2013-05-11 13:45:00,84.2,60.6,30.06,SSW,203,1.9,3.8,45,0.00,,CLR,0.00,VWS V14.01,2013-05-11 20:45:00,
2013-05-11 13:50:00,84.1,60.5,30.06,SE,143,1.9,7.6,45,0.00,,CLR,0.00,VWS V14.01,2013-05-11 20:50:00,
2013-05-11 13:55:00,84.7,59.8,30.06,West,260,1.9,7.6,43,0.00,,CLR,0.00,VWS V14.01,2013-05-11 20:55:00,
2013-05-11 14:00:00,85.1,59.4,30.06,WSW,255,1.9,3.8,42,0.00,,CLR,0.00,VWS V14.01,2013-05-11 21:00:00,
2013-05-11 14:05:00,85.8,59.4,30.06,SW,228,0.0,5.7,41,0.00,,BKN250,0.00,VWS V14.01,2013-05-11 21:05:00,
2013-05-11 14:10:00,86.4,60.6,30.06,South,170,1.9,1.9,42,0.00,,BKN250,0.00,VWS V14.01,2013-05-11 21:10:00,
2013-05-11 14:15:00,86.4,60.0,30.06,SW,219,0.0,9.5,41,0.00,,BKN250,0.00,VWS V14.01,2013-05-11 21:15:00,
2013-05-11 14:20:00,86.4,59.3,30.06,West,277,1.9,7.6,40,0.00,,BKN250,0.00,VWS V14.01,2013-05-11 21:20:00,
2013-05-11 14:25:00,85.8,58.0,30.06,WSW,239,1.9,7.6,39,0.00,,BKN250,0.00,VWS V14.01,2013-05-11 21:25:00,
2013-05-11 14:30:00,85.2,60.2,30.06,SW,231,0.0,7.6,43,0.00,,BKN250,0.00,VWS V14.01,2013-05-11 21:30:00,
2013-05-11 14:35:00,84.8,59.8,30.06,WSW,257,1.9,7.6,43,0.00,,BKN250,0.00,VWS V14.01,2013-05-11 21:35:00,
2013-05-11 14:40:00,84.9,59.9,30.05,SW,236,5.7,7.6,43,0.00,,BKN250,0.00,VWS V14.01,2013-05-11 21:40:00,
2013-05-11 14:45:00,84.7,60.4,30.06,West,271,1.9,7.6,44,0.00,,BKN250,0.00,VWS V14.01,2013-05-11 21:45:00,
2013-05-11 14:50:00,84.7,59.8,30.05,South,184,1.9,9.5,43,0.00,,BKN250,0.00,VWS V14.01,2013-05-11 21:50:00,
2013-05-11 14:55:00,84.7,60.4,30.05,SE,131,3.8,9.5,44,0.00,,BKN250,0.00,VWS V14.01,2013-05-11 21:55:00,
2013-05-11 15:01:00,84.9,60.6,30.05,SSW,212,3.8,3.8,44,0.00,,BKN250,0.00,VWS V14.01,2013-05-11 22:01:00,
2013-05-11 15:06:00,84.8,60.5,30.05,SE,145,1.9,11.4,44,0.00,,SCT200,0.00,VWS V14.01,2013-05-11 22:06:00,
2013-05-11 15:11:00,84.5,59.6,30.04,NW,309,1.9,1.9,43,0.00,,SCT200,0.00,VWS V14.01,2013-05-11 22:11:00,
2013-05-11 15:16:00,84.1,59.2,30.04,WNW,298,5.7,5.7,43,0.00,,SCT200,0.00,VWS V14.01,2013-05-11 22:16:00,
2013-05-11 15:21:00,84.0,59.2,30.04,West,260,1.9,5.7,43,0.00,,SCT200,0.00,VWS V14.01,2013-05-11 22:21:00,
2013-05-11 15:26:00,83.7,58.2,30.04,SW,224,5.7,9.5,42,0.00,,SCT200,0.00,VWS V14.01,2013-05-11 22:26:00,
2013-05-11 15:31:00,83.2,59.0,30.04,East,94,1.9,3.8,44,0.00,,SCT200,0.00,VWS V14.01,2013-05-11 22:31:00,
2013-05-11 15:36:00,82.8,58.7,30.04,WSW,243,1.9,11.4,44,0.00,,SCT200,0.00,VWS V14.01,2013-05-11 22:36:00,
2013-05-11 15:41:00,82.4,58.3,30.04,WNW,302,5.7,5.7,44,0.00,,SCT200,0.00,VWS V14.01,2013-05-11 22:41:00,
2013-05-11 15:46:00,81.8,58.5,30.04,WSW,240,1.9,15.2,45,0.00,,SCT200,0.00,VWS V14.01,2013-05-11 22:46:00,
2013-05-11 15:51:00,81.7,58.3,30.04,SE,136,7.6,11.4,45,0.00,,SCT200,0.00,VWS V14.01,2013-05-11 22:51:00,
2013-05-11 15:56:00,80.8,57.5,30.04,WSW,253,1.9,15.2,45,0.00,,SCT200,0.00,VWS V14.01,2013-05-11 22:56:00,
2013-05-11 16:01:00,80.9,58.2,30.04,WNW,300,0.0,1.9,46,0.00,,SCT200,0.00,VWS V14.01,2013-05-11 23:01:00,
2013-05-11 16:06:00,81.6,57.6,30.04,SW,228,0.0,5.7,44,0.00,,SCT200,0.00,VWS V14.01,2013-05-11 23:06:00,
2013-05-11 16:11:00,81.3,57.3,30.04,West,259,0.0,13.3,44,0.00,,SCT200,0.00,VWS V14.01,2013-05-11 23:11:00,
2013-05-11 16:16:00,80.7,55.5,30.04,West,259,0.0,13.3,42,0.00,,SCT200,0.00,VWS V14.01,2013-05-11 23:16:00,
2013-05-11 16:21:00,80.1,56.9,30.04,SW,219,1.9,13.3,45,0.00,,SCT200,0.00,VWS V14.01,2013-05-11 23:21:00,
2013-05-11 16:26:00,80.0,56.8,30.04,SSW,212,3.8,13.3,45,0.00,,SCT200,0.00,VWS V14.01,2013-05-11 23:26:00,
2013-05-11 16:31:00,79.6,55.8,30.04,WSW,252,0.0,7.6,44,0.00,,SCT200,0.00,VWS V14.01,2013-05-11 23:31:00,
2013-05-11 16:36:00,79.6,56.4,30.04,WSW,244,0.0,7.6,45,0.00,,SCT200,0.00,VWS V14.01,2013-05-11 23:36:00,
2013-05-11 16:41:00,79.7,55.8,30.04,WSW,256,0.0,9.5,44,0.00,,SCT200,0.00,VWS V14.01,2013-05-11 23:41:00,
2013-05-11 16:46:00,79.5,54.4,30.04,South,190,7.6,9.5,42,0.00,,SCT200,0.00,VWS V14.01,2013-05-11 23:46:00,
2013-05-11 16:51:00,78.7,55.0,30.04,SW,225,3.8,11.4,44,0.00,,SCT200,0.00,VWS V14.01,2013-05-11 23:51:00,
2013-05-11 16:56:00,78.2,54.6,30.04,SSW,210,3.8,11.4,44,0.00,,SCT200,0.00,VWS V14.01,2013-05-11 23:56:00,
2013-05-11 17:01:00,77.9,54.8,30.04,SSW,197,3.8,3.8,45,0.00,,BKN200,0.00,VWS V14.01,2013-05-12 00:01:00,
2013-05-11 17:06:00,77.5,54.5,30.04,South,187,9.5,9.5,45,0.00,,BKN200,0.00,VWS V14.01,2013-05-12 00:06:00,
2013-05-11 17:11:00,77.1,55.3,30.04,WSW,246,0.0,9.5,47,0.00,,BKN200,0.00,VWS V14.01,2013-05-12 00:11:00,
2013-05-11 17:16:00,77.4,55.0,30.04,South,184,5.7,7.6,46,0.00,,BKN200,0.00,VWS V14.01,2013-05-12 00:16:00,
2013-05-11 17:21:00,77.4,56.2,30.04,WSW,238,0.0,7.6,48,0.00,,BKN200,0.00,VWS V14.01,2013-05-12 00:21:00,
2013-05-11 17:26:00,77.4,56.2,30.04,SSW,193,1.9,7.6,48,0.00,,BKN200,0.00,VWS V14.01,2013-05-12 00:26:00,
2013-05-11 17:31:00,77.2,56.0,30.04,South,186,5.7,11.4,48,0.00,,BKN200,0.00,VWS V14.01,2013-05-12 00:31:00,
2013-05-11 17:36:00,76.2,55.6,30.04,SSW,194,0.0,11.4,49,0.00,,BKN200,0.00,VWS V14.01,2013-05-12 00:36:00,
2013-05-11 17:41:00,75.3,55.4,30.04,SSW,193,9.5,11.4,50,0.00,,BKN200,0.00,VWS V14.01,2013-05-12 00:41:00,
2013-05-11 17:47:00,74.1,54.8,30.04,South,187,1.9,9.5,51,0.00,,BKN200,0.00,VWS V14.01,2013-05-12 00:47:00,
2013-05-11 17:52:00,73.3,54.6,30.04,SW,225,0.0,9.5,52,0.00,,BKN200,0.00,VWS V14.01,2013-05-12 00:52:00,
2013-05-11 17:57:00,72.9,54.8,30.04,SW,223,1.9,9.5,53,0.00,,BKN200,0.00,VWS V14.01,2013-05-12 00:57:00,
2013-05-11 18:02:00,72.3,54.3,30.04,West,276,3.8,3.8,53,0.00,,BKN200,0.00,VWS V14.01,2013-05-12 01:02:00,
2013-05-11 18:07:00,71.8,54.3,30.04,West,259,0.0,3.8,54,0.00,,BKN200,0.00,VWS V14.01,2013-05-12 01:07:00,
2013-05-11 18:12:00,71.4,53.9,30.04,SW,221,0.0,3.8,54,0.00,,BKN200,0.00,VWS V14.01,2013-05-12 01:12:00,
2013-05-11 18:17:00,71.1,54.2,30.04,West,267,0.0,1.9,55,0.00,,BKN200,0.00,VWS V14.01,2013-05-12 01:17:00,
2013-05-11 18:22:00,70.4,52.9,30.04,SSW,200,0.0,5.7,54,0.00,,BKN200,0.00,VWS V14.01,2013-05-12 01:22:00,
2013-05-11 18:27:00,69.4,53.0,30.04,SW,232,0.0,5.7,56,0.00,,BKN200,0.00,VWS V14.01,2013-05-12 01:27:00,
2013-05-11 18:32:00,68.4,53.0,30.04,WNW,285,0.0,9.5,58,0.00,,BKN200,0.00,VWS V14.01,2013-05-12 01:32:00,
2013-05-11 18:37:00,67.5,53.2,30.04,SE,135,1.9,9.5,60,0.00,,BKN200,0.00,VWS V14.01,2013-05-12 01:37:00,
2013-05-11 18:42:00,66.8,53.0,30.04,WSW,238,1.9,9.5,61,0.00,,BKN200,0.00,VWS V14.01,2013-05-12 01:42:00,
2013-05-11 18:47:00,66.0,52.6,30.04,South,191,0.0,3.8,62,0.00,,BKN200,0.00,VWS V14.01,2013-05-12 01:47:00,
2013-05-11 18:52:00,65.3,52.4,30.04,SSW,211,0.0,5.7,63,0.00,,BKN200,0.00,VWS V14.01,2013-05-12 01:52:00,
2013-05-11 18:57:00,64.9,52.5,30.04,South,184,0.0,5.7,64,0.00,,BKN200,0.00,VWS V14.01,2013-05-12 01:57:00,
2013-05-11 19:02:00,64.3,51.8,30.04,WSW,248,0.0,5.7,64,0.00,,CLR,0.00,VWS V14.01,2013-05-12 02:02:00,
2013-05-11 19:07:00,64.1,52.1,30.04,South,176,1.9,5.7,65,0.00,,CLR,0.00,VWS V14.01,2013-05-12 02:07:00,
2013-05-11 19:12:00,63.8,51.8,30.04,East,100,1.9,7.6,65,0.00,,CLR,0.00,VWS V14.01,2013-05-12 02:12:00,
2013-05-11 19:17:00,63.6,51.6,30.04,West,259,3.8,7.6,65,0.00,,CLR,0.00,VWS V14.01,2013-05-12 02:17:00,
2013-05-11 19:22:00,63.6,52.1,30.04,NNW,331,1.9,7.6,66,0.00,,CLR,0.00,VWS V14.01,2013-05-12 02:22:00,
2013-05-11 19:27:00,63.2,51.7,30.04,SSE,163,0.0,7.6,66,0.00,,CLR,0.00,VWS V14.01,2013-05-12 02:27:00,
2013-05-11 19:32:00,62.5,51.8,30.04,South,176,0.0,1.9,68,0.00,,CLR,0.00,VWS V14.01,2013-05-12 02:32:00,
2013-05-11 19:37:00,61.7,51.5,30.05,WSW,257,0.0,3.8,69,0.00,,CLR,0.00,VWS V14.01,2013-05-12 02:37:00,
2013-05-11 19:42:00,61.1,51.3,30.05,SW,236,0.0,5.7,70,0.00,,CLR,0.00,VWS V14.01,2013-05-12 02:42:00,
2013-05-11 19:47:00,60.6,51.1,30.05,SW,217,1.9,5.7,71,0.00,,CLR,0.00,VWS V14.01,2013-05-12 02:47:00,
2013-05-11 19:52:00,59.9,50.9,30.05,SSE,155,0.0,7.6,72,0.00,,CLR,0.00,VWS V14.01,2013-05-12 02:52:00,
2013-05-11 19:57:00,59.5,50.9,30.05,SSW,205,0.0,7.6,73,0.00,,CLR,0.00,VWS V14.01,2013-05-12 02:57:00,
2013-05-11 20:02:00,59.1,50.9,30.05,SW,232,1.9,1.9,74,0.00,,CLR,0.00,VWS V14.01,2013-05-12 03:02:00,
2013-05-11 20:07:00,58.9,50.6,30.05,SSW,195,1.9,1.9,74,0.00,,CLR,0.00,VWS V14.01,2013-05-12 03:07:00,
2013-05-11 20:12:00,58.6,50.7,30.05,West,274,0.0,5.7,75,0.00,,CLR,0.00,VWS V14.01,2013-05-12 03:12:00,
2013-05-11 20:17:00,58.3,50.4,30.05,SSW,204,0.0,1.9,75,0.00,,CLR,0.00,VWS V14.01,2013-05-12 03:17:00,
2013-05-11 20:22:00,58.1,50.6,30.05,WSW,255,0.0,3.8,76,0.00,,CLR,0.00,VWS V14.01,2013-05-12 03:22:00,
2013-05-11 20:27:00,58.0,50.5,30.05,SW,218,0.0,3.8,76,0.00,,CLR,0.00,VWS V14.01,2013-05-12 03:27:00,
2013-05-11 20:32:00,57.7,50.6,30.06,SW,219,0.0,1.9,77,0.00,,CLR,0.00,VWS V14.01,2013-05-12 03:32:00,
2013-05-11 20:37:00,57.5,50.4,30.06,South,188,0.0,3.8,77,0.00,,CLR,0.00,VWS V14.01,2013-05-12 03:37:00,
2013-05-11 20:42:00,57.2,50.5,30.06,WNW,282,0.0,3.8,78,0.00,,CLR,0.00,VWS V14.01,2013-05-12 03:42:00,
2013-05-11 20:47:00,57.0,50.2,30.06,West,265,0.0,1.9,78,0.00,,CLR,0.00,VWS V14.01,2013-05-12 03:47:00,
2013-05-11 20:52:00,56.6,50.2,30.06,SW,229,0.0,1.9,79,0.00,,CLR,0.00,VWS V14.01,2013-05-12 03:52:00,
2013-05-11 20:57:00,56.2,50.1,30.06,SSW,198,0.0,9.5,80,0.00,,CLR,0.00,VWS V14.01,2013-05-12 03:57:00,
2013-05-11 21:01:00,55.9,49.8,30.07,SW,229,3.8,3.8,80,0.00,,CLR,0.00,VWS V14.01,2013-05-12 04:01:00,
2013-05-11 21:03:00,55.8,49.8,30.07,SW,232,0.0,3.8,80,0.00,,CLR,0.00,VWS V14.01,2013-05-12 04:03:00,
2013-05-11 21:04:00,55.7,49.7,30.07,SSW,212,0.0,3.8,80,0.00,,CLR,0.00,VWS V14.01,2013-05-12 04:04:00,
2013-05-11 21:05:00,55.7,50.0,30.07,SW,224,1.9,3.8,81,0.00,,CLR,0.00,VWS V14.01,2013-05-12 04:05:00,
2013-05-11 21:10:00,55.4,49.7,30.07,SSW,211,0.0,3.8,81,0.00,,CLR,0.00,VWS V14.01,2013-05-12 04:10:00,
2013-05-11 21:15:00,55.2,49.8,30.07,SW,229,1.9,1.9,82,0.00,,CLR,0.00,VWS V14.01,2013-05-12 04:15:00,
2013-05-11 21:20:00,55.0,49.9,30.07,SW,217,0.0,5.7,83,0.00,,CLR,0.00,VWS V14.01,2013-05-12 04:20:00,
2013-05-11 21:25:00,54.7,49.6,30.08,SSW,200,0.0,5.7,83,0.00,,CLR,0.00,VWS V14.01,2013-05-12 04:25:00,
2013-05-11 21:30:00,54.5,49.4,30.08,SSW,200,0.0,0.0,83,0.00,,CLR,0.00,VWS V14.01,2013-05-12 04:30:00,
2013-05-11 21:35:00,54.2,49.5,30.08,WSW,255,0.0,1.9,84,0.00,,CLR,0.00,VWS V14.01,2013-05-12 04:35:00,
2013-05-11 21:40:00,54.0,49.3,30.08,SSW,205,0.0,3.8,84,0.00,,CLR,0.00,VWS V14.01,2013-05-12 04:40:00,
2013-05-11 21:45:00,53.8,49.4,30.08,SSW,205,0.0,0.0,85,0.00,,CLR,0.00,VWS V14.01,2013-05-12 04:45:00,
2013-05-11 21:50:00,53.6,49.2,30.08,SSW,195,0.0,3.8,85,0.00,,CLR,0.00,VWS V14.01,2013-05-12 04:50:00,
2013-05-11 21:55:00,53.4,49.1,30.08,WSW,250,0.0,3.8,85,0.00,,CLR,0.00,VWS V14.01,2013-05-12 04:55:00,
2013-05-11 22:00:00,53.3,49.2,30.08,West,281,1.9,1.9,86,0.00,,CLR,0.00,VWS V14.01,2013-05-12 05:00:00,
2013-05-11 22:05:00,53.2,49.1,30.09,SSW,212,0.0,1.9,86,0.00,,CLR,0.00,VWS V14.01,2013-05-12 05:05:00,
2013-05-11 22:10:00,53.1,49.0,30.09,South,172,0.0,3.8,86,0.00,,CLR,0.00,VWS V14.01,2013-05-12 05:10:00,
2013-05-11 22:15:00,52.9,48.8,30.09,ESE,109,0.0,0.0,86,0.00,,CLR,0.00,VWS V14.01,2013-05-12 05:15:00,
2013-05-11 22:20:00,52.7,48.6,30.09,SSW,212,0.0,1.9,86,0.00,,CLR,0.00,VWS V14.01,2013-05-12 05:20:00,
2013-05-11 22:25:00,52.6,48.8,30.09,SSW,212,0.0,1.9,87,0.00,,CLR,0.00,VWS V14.01,2013-05-12 05:25:00,
2013-05-11 22:30:00,52.4,48.7,30.09,South,181,0.0,0.0,87,0.00,,CLR,0.00,VWS V14.01,2013-05-12 05:30:00,
2013-05-11 22:35:00,52.2,48.8,30.09,West,281,0.0,1.9,88,0.00,,CLR,0.00,VWS V14.01,2013-05-12 05:35:00,
2013-05-11 22:40:00,52.1,48.7,30.09,SSW,197,0.0,1.9,88,0.00,,CLR,0.00,VWS V14.01,2013-05-12 05:40:00,
2013-05-11 22:45:00,51.9,48.5,30.09,SW,214,0.0,0.0,88,0.00,,CLR,0.00,VWS V14.01,2013-05-12 05:45:00,
2013-05-11 22:50:00,51.8,48.4,30.09,SW,214,0.0,1.9,88,0.00,,CLR,0.00,VWS V14.01,2013-05-12 05:50:00,
2013-05-11 22:55:00,51.7,48.3,30.09,West,277,0.0,3.8,88,0.00,,CLR,0.00,VWS V14.01,2013-05-12 05:55:00,
2013-05-11 23:00:00,51.6,48.5,30.09,SSW,211,0.0,0.0,89,0.00,,CLR,0.00,VWS V14.01,2013-05-12 06:00:00,
2013-05-11 23:05:00,51.5,48.4,30.10,WSW,238,0.0,1.9,89,0.00,,CLR,0.00,VWS V14.01,2013-05-12 06:05:00,
2013-05-11 23:10:00,51.5,48.3,30.10,WSW,252,0.0,1.9,89,0.00,,CLR,0.00,VWS V14.01,2013-05-12 06:10:00,
2013-05-11 23:15:00,51.3,48.2,30.10,WSW,250,0.0,0.0,89,0.00,,CLR,0.00,VWS V14.01,2013-05-12 06:15:00,
2013-05-11 23:20:00,51.3,48.1,30.10,West,261,0.0,1.9,89,0.00,,CLR,0.00,VWS V14.01,2013-05-12 06:20:00,
2013-05-11 23:25:00,51.1,48.0,30.10,West,267,0.0,1.9,89,0.00,,CLR,0.00,VWS V14.01,2013-05-12 06:25:00,
2013-05-11 23:30:00,51.0,48.2,30.10,WSW,239,0.0,1.9,90,0.00,,CLR,0.00,VWS V14.01,2013-05-12 06:30:00,
2013-05-11 23:35:00,50.8,48.0,30.10,SSW,207,1.9,1.9,90,0.00,,CLR,0.00,VWS V14.01,2013-05-12 06:35:00,
2013-05-11 23:40:00,50.7,47.9,30.10,NW,309,0.0,3.8,90,0.00,,FEW003,0.00,VWS V14.01,2013-05-12 06:40:00,
2013-05-11 23:45:00,50.5,47.7,30.11,NW,307,0.0,0.0,90,0.00,,FEW003,0.00,VWS V14.01,2013-05-12 06:45:00,
2013-05-11 23:50:00,50.4,47.9,30.11,NW,307,0.0,1.9,91,0.00,,FEW003,0.00,VWS V14.01,2013-05-12 06:50:00,
2013-05-11 23:55:00,50.4,47.9,30.11,West,276,0.0,1.9,91,0.00,,FEW003,0.00,VWS V14.01,2013-05-12 06:55:00,